sensor_id;sensor_type;location;lat;lon;timestamp;pressure;altitude;pressure_sealevel;temperature;humidity
31062;BME280;17724;53.546;9.974;2023-05-23T00:03:46;101269.03;;;18.39;100.00
31062;BME280;17724;53.546;9.974;2023-05-23T00:07:48;101245.16;;;18.33;100.00
31062;BME280;17724;53.546;9.974;2023-05-23T00:11:49;101249.72;;;18.24;100.00
31062;BME280;17724;53.546;9.974;2023-05-23T00:15:49;101246.78;;;18.34;100.00
31062;BME280;17724;53.546;9.974;2023-05-23T00:19:50;101231.34;;;18.23;100.00
31062;BME280;17724;53.546;9.974;2023-05-23T00:23:50;101250.41;;;18.16;100.00
31062;BME280;17724;53.546;9.974;2023-05-23T00:27:53;101243.47;;;18.13;100.00
31062;BME280;17724;53.546;9.974;2023-05-23T00:31:53;101233.69;;;18.16;100.00
31062;BME280;17724;53.546;9.974;2023-05-23T00:35:54;101233.94;;;18.19;100.00
31062;BME280;17724;53.546;9.974;2023-05-23T00:39:55;101236.59;;;18.06;100.00
31062;BME280;17724;53.546;9.974;2023-05-23T00:43:56;101215.97;;;18.07;100.00
31062;BME280;17724;53.546;9.974;2023-05-23T00:47:59;101217.50;;;18.18;100.00
31062;BME280;17724;53.546;9.974;2023-05-23T00:52:00;101211.72;;;18.14;100.00
31062;BME280;17724;53.546;9.974;2023-05-23T00:56:01;101212.75;;;18.18;100.00
31062;BME280;17724;53.546;9.974;2023-05-23T01:00:02;101201.63;;;18.18;100.00
31062;BME280;17724;53.546;9.974;2023-05-23T01:04:03;101209.94;;;18.24;100.00
31062;BME280;17724;53.546;9.974;2023-05-23T01:08:04;101206.84;;;18.25;100.00
31062;BME280;17724;53.546;9.974;2023-05-23T01:16:29;101190.97;;;18.26;100.00
31062;BME280;17724;53.546;9.974;2023-05-23T01:20:38;101204.13;;;18.20;100.00
31062;BME280;17724;53.546;9.974;2023-05-23T01:25:39;101196.28;;;18.22;100.00
31062;BME280;17724;53.546;9.974;2023-05-23T01:29:23;101185.06;;;18.27;100.00
31062;BME280;17724;53.546;9.974;2023-05-23T01:33:26;101168.22;;;18.18;100.00
31062;BME280;17724;53.546;9.974;2023-05-23T01:37:28;101191.56;;;18.41;100.00
31062;BME280;17724;53.546;9.974;2023-05-23T01:41:29;101196.16;;;18.32;100.00
31062;BME280;17724;53.546;9.974;2023-05-23T01:45:30;101199.66;;;18.19;100.00
31062;BME280;17724;53.546;9.974;2023-05-23T01:49:32;101214.56;;;17.61;100.00
31062;BME280;17724;53.546;9.974;2023-05-23T01:53:34;101209.72;;;17.48;100.00
31062;BME280;17724;53.546;9.974;2023-05-23T01:57:37;101223.91;;;17.46;100.00
31062;BME280;17724;53.546;9.974;2023-05-23T02:01:38;101224.22;;;17.45;100.00
31062;BME280;17724;53.546;9.974;2023-05-23T02:05:39;101215.19;;;17.29;100.00
31062;BME280;17724;53.546;9.974;2023-05-23T02:09:40;101197.78;;;17.18;100.00
31062;BME280;17724;53.546;9.974;2023-05-23T02:13:41;101217.75;;;16.96;100.00
31062;BME280;17724;53.546;9.974;2023-05-23T02:17:41;101209.34;;;16.62;100.00
31062;BME280;17724;53.546;9.974;2023-05-23T02:21:42;101211.34;;;16.57;100.00
31062;BME280;17724;53.546;9.974;2023-05-23T02:25:42;101208.03;;;16.55;100.00
31062;BME280;17724;53.546;9.974;2023-05-23T02:29:43;101210.44;;;16.66;100.00
31062;BME280;17724;53.546;9.974;2023-05-23T02:33:44;101214.16;;;16.51;100.00
31062;BME280;17724;53.546;9.974;2023-05-23T02:37:44;101225.81;;;16.54;100.00
31062;BME280;17724;53.546;9.974;2023-05-23T02:41:45;101228.28;;;16.60;100.00
31062;BME280;17724;53.546;9.974;2023-05-23T02:45:46;101207.19;;;16.54;100.00
31062;BME280;17724;53.546;9.974;2023-05-23T02:49:46;101220.50;;;16.57;100.00
31062;BME280;17724;53.546;9.974;2023-05-23T02:53:47;101221.78;;;16.36;100.00
31062;BME280;17724;53.546;9.974;2023-05-23T02:57:47;101228.88;;;16.47;100.00
31062;BME280;17724;53.546;9.974;2023-05-23T03:01:48;101216.09;;;16.56;100.00
31062;BME280;17724;53.546;9.974;2023-05-23T03:05:48;101222.56;;;16.41;100.00
31062;BME280;17724;53.546;9.974;2023-05-23T03:09:49;101224.00;;;16.34;100.00
31062;BME280;17724;53.546;9.974;2023-05-23T03:13:51;101220.47;;;16.18;100.00
31062;BME280;17724;53.546;9.974;2023-05-23T03:17:51;101223.38;;;16.42;100.00
31062;BME280;17724;53.546;9.974;2023-05-23T03:21:52;101228.72;;;16.33;100.00
31062;BME280;17724;53.546;9.974;2023-05-23T03:25:53;101210.06;;;16.39;100.00
31062;BME280;17724;53.546;9.974;2023-05-23T03:29:55;101215.59;;;16.44;100.00
31062;BME280;17724;53.546;9.974;2023-05-23T03:33:56;101221.16;;;16.39;100.00
31062;BME280;17724;53.546;9.974;2023-05-23T03:37:56;101223.44;;;16.32;100.00
31062;BME280;17724;53.546;9.974;2023-05-23T03:41:57;101224.75;;;16.44;100.00
31062;BME280;17724;53.546;9.974;2023-05-23T03:45:57;101223.06;;;16.48;100.00
31062;BME280;17724;53.546;9.974;2023-05-23T03:49:58;101217.31;;;16.40;100.00
31062;BME280;17724;53.546;9.974;2023-05-23T03:54:00;101209.75;;;16.45;100.00
31062;BME280;17724;53.546;9.974;2023-05-23T03:58:00;101212.94;;;16.23;100.00
31062;BME280;17724;53.546;9.974;2023-05-23T04:02:01;101221.84;;;16.15;100.00
31062;BME280;17724;53.546;9.974;2023-05-23T04:06:02;101227.03;;;16.37;100.00
31062;BME280;17724;53.546;9.974;2023-05-23T04:10:03;101225.97;;;16.28;100.00
31062;BME280;17724;53.546;9.974;2023-05-23T04:14:04;101236.22;;;16.33;100.00
31062;BME280;17724;53.546;9.974;2023-05-23T04:18:05;101217.47;;;16.09;100.00
31062;BME280;17724;53.546;9.974;2023-05-23T04:22:08;101225.50;;;16.11;100.00
31062;BME280;17724;53.546;9.974;2023-05-23T04:26:09;101241.84;;;16.17;100.00
31062;BME280;17724;53.546;9.974;2023-05-23T04:30:15;101245.16;;;16.19;100.00
31062;BME280;17724;53.546;9.974;2023-05-23T04:34:17;101233.78;;;16.21;100.00
31062;BME280;17724;53.546;9.974;2023-05-23T04:38:21;101229.09;;;16.11;100.00
31062;BME280;17724;53.546;9.974;2023-05-23T04:42:24;101241.28;;;16.15;100.00
31062;BME280;17724;53.546;9.974;2023-05-23T04:46:36;101239.94;;;16.13;100.00
31062;BME280;17724;53.546;9.974;2023-05-23T04:50:46;101245.47;;;16.13;100.00
31062;BME280;17724;53.546;9.974;2023-05-23T04:54:48;101247.44;;;16.12;100.00
31062;BME280;17724;53.546;9.974;2023-05-23T04:58:48;101243.91;;;15.86;100.00
31062;BME280;17724;53.546;9.974;2023-05-23T05:02:49;101246.88;;;16.10;100.00
31062;BME280;17724;53.546;9.974;2023-05-23T05:06:50;101258.25;;;16.09;100.00
31062;BME280;17724;53.546;9.974;2023-05-23T05:10:53;101251.28;;;16.16;100.00
31062;BME280;17724;53.546;9.974;2023-05-23T05:14:54;101253.72;;;16.23;100.00
31062;BME280;17724;53.546;9.974;2023-05-23T05:18:55;101256.59;;;16.02;100.00
31062;BME280;17724;53.546;9.974;2023-05-23T05:22:57;101250.53;;;16.00;100.00
31062;BME280;17724;53.546;9.974;2023-05-23T05:26:57;101261.88;;;15.99;100.00
31062;BME280;17724;53.546;9.974;2023-05-23T05:30:58;101240.31;;;15.86;100.00
31062;BME280;17724;53.546;9.974;2023-05-23T05:35:00;101257.50;;;15.83;100.00
31062;BME280;17724;53.546;9.974;2023-05-23T05:39:02;101246.72;;;15.71;100.00
31062;BME280;17724;53.546;9.974;2023-05-23T05:43:02;101264.66;;;15.99;100.00
31062;BME280;17724;53.546;9.974;2023-05-23T05:47:03;101260.53;;;15.91;100.00
31062;BME280;17724;53.546;9.974;2023-05-23T05:51:04;101270.84;;;15.81;100.00
31062;BME280;17724;53.546;9.974;2023-05-23T05:55:08;101272.22;;;15.88;100.00
31062;BME280;17724;53.546;9.974;2023-05-23T05:59:14;101273.00;;;15.94;100.00
31062;BME280;17724;53.546;9.974;2023-05-23T06:03:15;101263.84;;;15.98;100.00
31062;BME280;17724;53.546;9.974;2023-05-23T06:07:23;101271.88;;;16.05;100.00
31062;BME280;17724;53.546;9.974;2023-05-23T06:11:23;101284.63;;;16.06;100.00
31062;BME280;17724;53.546;9.974;2023-05-23T06:15:25;101285.97;;;16.14;100.00
31062;BME280;17724;53.546;9.974;2023-05-23T06:19:25;101279.81;;;16.27;100.00
31062;BME280;17724;53.546;9.974;2023-05-23T06:23:27;101288.66;;;16.34;100.00
31062;BME280;17724;53.546;9.974;2023-05-23T06:27:31;101295.09;;;16.24;100.00
31062;BME280;17724;53.546;9.974;2023-05-23T06:31:31;101300.31;;;16.36;100.00
31062;BME280;17724;53.546;9.974;2023-05-23T06:35:32;101299.72;;;16.39;100.00
31062;BME280;17724;53.546;9.974;2023-05-23T06:39:34;101301.97;;;16.37;100.00
31062;BME280;17724;53.546;9.974;2023-05-23T06:43:36;101303.34;;;16.35;100.00
31062;BME280;17724;53.546;9.974;2023-05-23T06:47:47;101306.44;;;16.33;100.00
31062;BME280;17724;53.546;9.974;2023-05-23T06:51:49;101307.78;;;16.41;100.00
31062;BME280;17724;53.546;9.974;2023-05-23T06:55:50;101317.81;;;16.37;100.00
31062;BME280;17724;53.546;9.974;2023-05-23T06:59:53;101314.31;;;16.06;100.00
31062;BME280;17724;53.546;9.974;2023-05-23T07:03:54;101303.31;;;15.80;100.00
31062;BME280;17724;53.546;9.974;2023-05-23T07:07:55;101329.06;;;15.86;100.00
31062;BME280;17724;53.546;9.974;2023-05-23T07:11:56;101329.91;;;15.61;100.00
31062;BME280;17724;53.546;9.974;2023-05-23T07:15:58;101337.41;;;15.55;100.00
31062;BME280;17724;53.546;9.974;2023-05-23T07:20:00;101321.06;;;15.23;100.00
31062;BME280;17724;53.546;9.974;2023-05-23T07:24:01;101349.59;;;15.23;100.00
31062;BME280;17724;53.546;9.974;2023-05-23T07:28:04;101344.03;;;14.98;100.00
31062;BME280;17724;53.546;9.974;2023-05-23T07:32:05;101356.78;;;14.89;100.00
31062;BME280;17724;53.546;9.974;2023-05-23T07:36:05;101362.88;;;15.01;100.00
31062;BME280;17724;53.546;9.974;2023-05-23T07:40:07;101369.00;;;15.08;100.00
31062;BME280;17724;53.546;9.974;2023-05-23T07:44:08;101370.38;;;15.21;100.00
31062;BME280;17724;53.546;9.974;2023-05-23T07:48:09;101375.38;;;15.29;100.00
31062;BME280;17724;53.546;9.974;2023-05-23T07:52:11;101373.72;;;15.38;100.00
31062;BME280;17724;53.546;9.974;2023-05-23T07:56:12;101386.47;;;15.49;100.00
31062;BME280;17724;53.546;9.974;2023-05-23T08:00:15;101407.53;;;15.25;100.00
31062;BME280;17724;53.546;9.974;2023-05-23T08:04:16;101413.59;;;15.17;100.00
31062;BME280;17724;53.546;9.974;2023-05-23T08:08:23;101410.81;;;15.12;100.00
31062;BME280;17724;53.546;9.974;2023-05-23T08:12:27;101412.22;;;15.04;100.00
31062;BME280;17724;53.546;9.974;2023-05-23T08:16:38;101414.16;;;15.09;100.00
31062;BME280;17724;53.546;9.974;2023-05-23T08:20:44;101422.19;;;15.10;100.00
31062;BME280;17724;53.546;9.974;2023-05-23T08:24:45;101428.28;;;15.22;100.00
31062;BME280;17724;53.546;9.974;2023-05-23T08:28:46;101434.38;;;15.14;100.00
31062;BME280;17724;53.546;9.974;2023-05-23T08:32:46;101437.47;;;15.38;100.00
31062;BME280;17724;53.546;9.974;2023-05-23T08:36:47;101447.97;;;15.31;100.00
31062;BME280;17724;53.546;9.974;2023-05-23T08:40:55;101440.78;;;15.25;100.00
31062;BME280;17724;53.546;9.974;2023-05-23T08:44:57;101454.91;;;15.28;100.00
31062;BME280;17724;53.546;9.974;2023-05-23T08:48:58;101461.03;;;15.41;100.00
31062;BME280;17724;53.546;9.974;2023-05-23T08:53:01;101442.97;;;15.13;100.00
31062;BME280;17724;53.546;9.974;2023-05-23T08:57:04;101462.38;;;15.13;100.00
31062;BME280;17724;53.546;9.974;2023-05-23T09:01:12;101470.16;;;15.26;100.00
31062;BME280;17724;53.546;9.974;2023-05-23T09:05:13;101467.56;;;14.94;100.00
31062;BME280;17724;53.546;9.974;2023-05-23T09:09:14;101487.84;;;15.10;100.00
31062;BME280;17724;53.546;9.974;2023-05-23T09:13:15;101488.91;;;15.03;100.00
31062;BME280;17724;53.546;9.974;2023-05-23T09:17:19;101504.63;;;14.83;100.00
31062;BME280;17724;53.546;9.974;2023-05-23T09:21:23;101506.44;;;14.57;100.00
31062;BME280;17724;53.546;9.974;2023-05-23T09:25:45;101536.28;;;14.49;100.00
31062;BME280;17724;53.546;9.974;2023-05-23T09:29:48;101528.56;;;14.57;100.00
31062;BME280;17724;53.546;9.974;2023-05-23T09:33:51;101532.06;;;14.47;100.00
31062;BME280;17724;53.546;9.974;2023-05-23T09:37:53;101536.44;;;14.38;100.00
31062;BME280;17724;53.546;9.974;2023-05-23T09:41:58;101541.56;;;14.24;100.00
31062;BME280;17724;53.546;9.974;2023-05-23T09:46:09;101551.63;;;14.35;100.00
31062;BME280;17724;53.546;9.974;2023-05-23T09:50:11;101536.09;;;14.29;100.00
31062;BME280;17724;53.546;9.974;2023-05-23T09:54:12;101552.25;;;14.10;100.00
31062;BME280;17724;53.546;9.974;2023-05-23T09:58:13;101564.78;;;14.18;100.00
31062;BME280;17724;53.546;9.974;2023-05-23T10:02:16;101565.88;;;14.49;100.00
31062;BME280;17724;53.546;9.974;2023-05-23T10:06:41;101560.84;;;14.46;100.00
31062;BME280;17724;53.546;9.974;2023-05-23T10:15:02;101590.06;;;14.32;100.00
31062;BME280;17724;53.546;9.974;2023-05-23T10:19:19;101584.75;;;14.25;100.00
31062;BME280;17724;53.546;9.974;2023-05-23T10:23:23;101603.66;;;14.65;100.00
31062;BME280;17724;53.546;9.974;2023-05-23T10:27:23;101596.88;;;14.51;100.00
31062;BME280;17724;53.546;9.974;2023-05-23T10:31:25;101614.53;;;14.45;100.00
31062;BME280;17724;53.546;9.974;2023-05-23T10:35:46;101618.28;;;14.61;100.00
31062;BME280;17724;53.546;9.974;2023-05-23T10:44:27;101632.78;;;14.73;100.00
31062;BME280;17724;53.546;9.974;2023-05-23T10:48:34;101629.69;;;14.64;100.00
31062;BME280;17724;53.546;9.974;2023-05-23T10:52:41;101637.91;;;14.59;100.00
31062;BME280;17724;53.546;9.974;2023-05-23T10:56:42;101647.81;;;14.50;100.00
31062;BME280;17724;53.546;9.974;2023-05-23T11:00:52;101636.06;;;14.70;100.00
31062;BME280;17724;53.546;9.974;2023-05-23T11:05:19;101659.16;;;14.81;100.00
31062;BME280;17724;53.546;9.974;2023-05-23T11:09:23;101650.44;;;14.67;99.96
31062;BME280;17724;53.546;9.974;2023-05-23T11:13:24;101669.09;;;14.82;97.85
31062;BME280;17724;53.546;9.974;2023-05-23T11:17:32;101665.81;;;14.85;96.40
31062;BME280;17724;53.546;9.974;2023-05-23T11:21:33;101665.06;;;14.99;96.81
31062;BME280;17724;53.546;9.974;2023-05-23T11:25:49;101656.00;;;15.09;96.41
31062;BME280;17724;53.546;9.974;2023-05-23T11:30:09;101672.78;;;15.40;94.55
31062;BME280;17724;53.546;9.974;2023-05-23T11:34:12;101683.81;;;15.24;90.94
31062;BME280;17724;53.546;9.974;2023-05-23T11:38:14;101675.63;;;15.02;90.76
31062;BME280;17724;53.546;9.974;2023-05-23T11:42:15;101686.59;;;15.30;92.11
31062;BME280;17724;53.546;9.974;2023-05-23T11:46:16;101672.00;;;15.44;91.33
31062;BME280;17724;53.546;9.974;2023-05-23T11:50:20;101684.25;;;15.64;89.81
31062;BME280;17724;53.546;9.974;2023-05-23T11:54:25;101721.97;;;15.12;83.92
31062;BME280;17724;53.546;9.974;2023-05-23T11:58:32;101701.19;;;15.15;83.54
31062;BME280;17724;53.546;9.974;2023-05-23T12:02:40;101688.22;;;15.20;83.71
31062;BME280;17724;53.546;9.974;2023-05-23T12:06:40;101712.38;;;15.72;85.38
31062;BME280;17724;53.546;9.974;2023-05-23T12:11:08;101717.63;;;15.69;81.05
31062;BME280;17724;53.546;9.974;2023-05-23T12:15:10;101711.53;;;15.72;78.45
31062;BME280;17724;53.546;9.974;2023-05-23T12:19:11;101721.09;;;15.49;75.75
31062;BME280;17724;53.546;9.974;2023-05-23T12:23:22;101721.81;;;15.76;77.74
31062;BME280;17724;53.546;9.974;2023-05-23T12:27:31;101714.88;;;15.79;76.56
31062;BME280;17724;53.546;9.974;2023-05-23T12:31:32;101726.72;;;16.42;75.19
31062;BME280;17724;53.546;9.974;2023-05-23T12:35:33;101726.22;;;16.76;73.14
31062;BME280;17724;53.546;9.974;2023-05-23T12:39:35;101750.56;;;16.43;70.95
31062;BME280;17724;53.546;9.974;2023-05-23T12:43:39;101728.94;;;16.45;70.83
31062;BME280;17724;53.546;9.974;2023-05-23T12:47:40;101728.38;;;16.43;69.34
31062;BME280;17724;53.546;9.974;2023-05-23T12:51:40;101741.44;;;16.58;69.08
31062;BME280;17724;53.546;9.974;2023-05-23T12:55:41;101744.47;;;16.41;67.97
31062;BME280;17724;53.546;9.974;2023-05-23T12:59:41;101763.50;;;16.02;66.33
31062;BME280;17724;53.546;9.974;2023-05-23T13:03:42;101751.31;;;16.03;66.13
31062;BME280;17724;53.546;9.974;2023-05-23T13:07:42;101775.22;;;16.14;65.25
31062;BME280;17724;53.546;9.974;2023-05-23T13:11:43;101772.50;;;16.30;65.81
31062;BME280;17724;53.546;9.974;2023-05-23T13:15:44;101777.16;;;16.14;64.18
31062;BME280;17724;53.546;9.974;2023-05-23T13:19:44;101779.94;;;16.14;66.60
31062;BME280;17724;53.546;9.974;2023-05-23T13:23:45;101781.81;;;15.98;65.91
31062;BME280;17724;53.546;9.974;2023-05-23T13:27:46;101775.38;;;15.87;66.73
31062;BME280;17724;53.546;9.974;2023-05-23T13:31:47;101801.50;;;15.96;65.57
31062;BME280;17724;53.546;9.974;2023-05-23T13:35:48;101797.53;;;15.82;66.57
31062;BME280;17724;53.546;9.974;2023-05-23T13:39:49;101792.63;;;15.94;66.27
31062;BME280;17724;53.546;9.974;2023-05-23T13:43:50;101805.41;;;16.00;64.61
31062;BME280;17724;53.546;9.974;2023-05-23T13:47:50;101801.97;;;15.78;63.77
31062;BME280;17724;53.546;9.974;2023-05-23T13:51:51;101812.31;;;15.98;62.45
31062;BME280;17724;53.546;9.974;2023-05-23T13:55:52;101800.41;;;15.97;63.71
31062;BME280;17724;53.546;9.974;2023-05-23T13:59:52;101804.66;;;16.20;63.91
31062;BME280;17724;53.546;9.974;2023-05-23T14:03:53;101816.84;;;16.19;64.00
31062;BME280;17724;53.546;9.974;2023-05-23T14:07:53;101813.59;;;16.33;63.25
31062;BME280;17724;53.546;9.974;2023-05-23T14:11:57;101818.63;;;16.51;61.81
31062;BME280;17724;53.546;9.974;2023-05-23T14:15:58;101821.94;;;16.38;59.91
31062;BME280;17724;53.546;9.974;2023-05-23T14:19:58;101825.22;;;16.24;60.93
31062;BME280;17724;53.546;9.974;2023-05-23T14:23:59;101823.16;;;15.99;61.38
31062;BME280;17724;53.546;9.974;2023-05-23T14:27:59;101813.53;;;16.22;64.75
31062;BME280;17724;53.546;9.974;2023-05-23T14:32:00;101818.47;;;16.05;61.10
31062;BME280;17724;53.546;9.974;2023-05-23T14:36:03;101825.38;;;15.97;60.89
31062;BME280;17724;53.546;9.974;2023-05-23T14:40:05;101832.28;;;15.95;61.79
31062;BME280;17724;53.546;9.974;2023-05-23T14:44:06;101837.22;;;15.88;59.38
31062;BME280;17724;53.546;9.974;2023-05-23T14:48:06;101829.25;;;15.59;60.92
31062;BME280;17724;53.546;9.974;2023-05-23T14:52:07;101824.00;;;15.58;60.09
31062;BME280;17724;53.546;9.974;2023-05-23T14:56:07;101847.25;;;15.94;63.79
31062;BME280;17724;53.546;9.974;2023-05-23T15:00:09;101853.81;;;15.77;61.95
31062;BME280;17724;53.546;9.974;2023-05-23T15:04:10;101862.28;;;15.98;62.14
31062;BME280;17724;53.546;9.974;2023-05-23T15:08:11;101873.75;;;15.69;61.01
31062;BME280;17724;53.546;9.974;2023-05-23T15:12:12;101841.34;;;15.43;61.01
31062;BME280;17724;53.546;9.974;2023-05-23T15:16:14;101851.81;;;15.36;64.17
31062;BME280;17724;53.546;9.974;2023-05-23T15:20:16;101855.75;;;15.72;62.29
31062;BME280;17724;53.546;9.974;2023-05-23T15:24:17;101851.03;;;15.72;62.98
31062;BME280;17724;53.546;9.974;2023-05-23T15:28:17;101844.31;;;15.31;65.21
31062;BME280;17724;53.546;9.974;2023-05-23T15:32:18;101848.50;;;15.34;65.93
31062;BME280;17724;53.546;9.974;2023-05-23T15:36:18;101855.47;;;15.73;66.17
31062;BME280;17724;53.546;9.974;2023-05-23T15:40:19;101872.13;;;15.79;64.17
31062;BME280;17724;53.546;9.974;2023-05-23T15:44:20;101858.75;;;15.65;60.21
31062;BME280;17724;53.546;9.974;2023-05-23T15:48:21;101865.59;;;15.25;59.07
31062;BME280;17724;53.546;9.974;2023-05-23T15:52:21;101864.94;;;15.45;61.94
31062;BME280;17724;53.546;9.974;2023-05-23T15:56:22;101874.38;;;15.44;62.36
31062;BME280;17724;53.546;9.974;2023-05-23T16:00:22;101877.47;;;15.53;62.00
31062;BME280;17724;53.546;9.974;2023-05-23T16:04:23;101869.41;;;15.19;61.54
31062;BME280;17724;53.546;9.974;2023-05-23T16:08:23;101863.69;;;15.31;63.03
31062;BME280;17724;53.546;9.974;2023-05-23T16:12:24;101878.50;;;15.42;62.12
31062;BME280;17724;53.546;9.974;2023-05-23T16:16:27;101866.66;;;15.19;61.79
31062;BME280;17724;53.546;9.974;2023-05-23T16:20:27;101883.72;;;15.06;60.85
31062;BME280;17724;53.546;9.974;2023-05-23T16:24:27;101876.03;;;14.86;61.68
31062;BME280;17724;53.546;9.974;2023-05-23T16:28:28;101886.09;;;14.92;62.25
31062;BME280;17724;53.546;9.974;2023-05-23T16:32:28;101882.34;;;14.82;62.09
31062;BME280;17724;53.546;9.974;2023-05-23T16:36:29;101885.84;;;14.72;61.25
31062;BME280;17724;53.546;9.974;2023-05-23T16:40:30;101870.13;;;14.77;58.96
31062;BME280;17724;53.546;9.974;2023-05-23T16:44:30;101894.94;;;14.94;59.33
31062;BME280;17724;53.546;9.974;2023-05-23T16:48:31;101891.63;;;14.92;59.89
31062;BME280;17724;53.546;9.974;2023-05-23T16:52:31;101892.38;;;14.88;58.50
31062;BME280;17724;53.546;9.974;2023-05-23T16:56:32;101892.81;;;15.28;62.56
31062;BME280;17724;53.546;9.974;2023-05-23T17:00:32;101895.16;;;15.15;60.42
31062;BME280;17724;53.546;9.974;2023-05-23T17:04:33;101892.38;;;14.88;61.56
31062;BME280;17724;53.546;9.974;2023-05-23T17:08:34;101888.78;;;14.87;62.14
31062;BME280;17724;53.546;9.974;2023-05-23T17:12:34;101879.31;;;14.83;63.45
31062;BME280;17724;53.546;9.974;2023-05-23T17:16:35;101885.41;;;14.58;64.11
31062;BME280;17724;53.546;9.974;2023-05-23T17:20:35;101887.41;;;14.63;65.08
31062;BME280;17724;53.546;9.974;2023-05-23T17:24:36;101877.47;;;14.67;63.94
31062;BME280;17724;53.546;9.974;2023-05-23T17:28:39;101885.97;;;14.82;64.31
31062;BME280;17724;53.546;9.974;2023-05-23T17:32:40;101901.28;;;14.90;63.26
31062;BME280;17724;53.546;9.974;2023-05-23T17:36:42;101900.44;;;14.23;61.85
31062;BME280;17724;53.546;9.974;2023-05-23T17:40:42;101918.28;;;14.33;63.68
31062;BME280;17724;53.546;9.974;2023-05-23T17:44:43;101917.31;;;14.44;62.72
31062;BME280;17724;53.546;9.974;2023-05-23T17:48:44;101913.38;;;14.18;63.89
31062;BME280;17724;53.546;9.974;2023-05-23T17:52:44;101918.25;;;14.11;64.84
31062;BME280;17724;53.546;9.974;2023-05-23T17:56:45;101920.00;;;14.39;66.83
31062;BME280;17724;53.546;9.974;2023-05-23T18:00:45;101908.50;;;14.08;69.08
31062;BME280;17724;53.546;9.974;2023-05-23T18:04:46;101916.72;;;14.42;66.75
31062;BME280;17724;53.546;9.974;2023-05-23T18:08:46;101926.97;;;14.41;66.11
31062;BME280;17724;53.546;9.974;2023-05-23T18:12:47;101931.44;;;13.70;66.77
31062;BME280;17724;53.546;9.974;2023-05-23T18:16:48;101925.75;;;13.76;66.90
31062;BME280;17724;53.546;9.974;2023-05-23T18:20:48;101948.09;;;14.09;67.50
31062;BME280;17724;53.546;9.974;2023-05-23T18:24:49;101926.03;;;14.14;67.10
31062;BME280;17724;53.546;9.974;2023-05-23T18:28:49;101941.81;;;14.13;66.53
31062;BME280;17724;53.546;9.974;2023-05-23T18:32:50;101944.00;;;13.94;66.88
31062;BME280;17724;53.546;9.974;2023-05-23T18:36:51;101942.44;;;13.82;67.47
31062;BME280;17724;53.546;9.974;2023-05-23T18:40:51;101938.31;;;13.67;68.72
31062;BME280;17724;53.546;9.974;2023-05-23T18:44:52;101937.81;;;13.70;70.65
31062;BME280;17724;53.546;9.974;2023-05-23T18:48:52;101942.84;;;13.90;68.72
31062;BME280;17724;53.546;9.974;2023-05-23T18:52:53;101949.63;;;13.83;68.80
31062;BME280;17724;53.546;9.974;2023-05-23T18:56:53;101920.13;;;13.71;68.70
31062;BME280;17724;53.546;9.974;2023-05-23T19:00:54;101933.88;;;13.66;68.17
31062;BME280;17724;53.546;9.974;2023-05-23T19:04:54;101949.56;;;13.77;67.96
31062;BME280;17724;53.546;9.974;2023-05-23T19:08:55;101956.34;;;13.70;69.22
31062;BME280;17724;53.546;9.974;2023-05-23T19:12:56;101940.84;;;13.69;69.16
31062;BME280;17724;53.546;9.974;2023-05-23T19:16:56;101953.13;;;13.44;66.84
31062;BME280;17724;53.546;9.974;2023-05-23T19:20:57;101951.38;;;13.38;65.52
31062;BME280;17724;53.546;9.974;2023-05-23T19:24:58;101957.81;;;13.15;66.47
31062;BME280;17724;53.546;9.974;2023-05-23T19:28:58;101963.75;;;13.07;67.96
31062;BME280;17724;53.546;9.974;2023-05-23T19:32:59;101966.59;;;13.12;69.09
31062;BME280;17724;53.546;9.974;2023-05-23T19:37:00;101953.38;;;13.43;70.15
31062;BME280;17724;53.546;9.974;2023-05-23T19:41:01;101966.44;;;13.30;69.27
31062;BME280;17724;53.546;9.974;2023-05-23T19:45:01;101978.25;;;13.43;71.55
31062;BME280;17724;53.546;9.974;2023-05-23T19:49:02;101974.94;;;13.58;70.80
31062;BME280;17724;53.546;9.974;2023-05-23T19:53:02;101980.31;;;13.07;67.80
31062;BME280;17724;53.546;9.974;2023-05-23T19:57:03;101988.25;;;13.03;69.29
31062;BME280;17724;53.546;9.974;2023-05-23T20:01:04;101989.19;;;13.09;67.19
31062;BME280;17724;53.546;9.974;2023-05-23T20:05:05;101987.84;;;13.23;67.47
31062;BME280;17724;53.546;9.974;2023-05-23T20:09:07;102006.56;;;12.93;66.07
31062;BME280;17724;53.546;9.974;2023-05-23T20:13:07;102018.44;;;12.93;66.89
31062;BME280;17724;53.546;9.974;2023-05-23T20:17:08;102016.75;;;12.80;68.27
31062;BME280;17724;53.546;9.974;2023-05-23T20:21:08;102005.69;;;12.92;68.10
31062;BME280;17724;53.546;9.974;2023-05-23T20:25:09;102014.44;;;13.01;66.67
31062;BME280;17724;53.546;9.974;2023-05-23T20:29:09;102015.75;;;12.98;66.87
31062;BME280;17724;53.546;9.974;2023-05-23T20:33:12;102007.25;;;12.88;66.85
31062;BME280;17724;53.546;9.974;2023-05-23T20:37:13;102010.63;;;12.90;66.30
31062;BME280;17724;53.546;9.974;2023-05-23T20:41:13;102005.50;;;12.82;66.93
31062;BME280;17724;53.546;9.974;2023-05-23T20:45:14;102004.38;;;12.95;66.16
31062;BME280;17724;53.546;9.974;2023-05-23T20:49:15;102008.53;;;12.69;64.80
31062;BME280;17724;53.546;9.974;2023-05-23T20:53:15;102007.69;;;12.56;65.67
31062;BME280;17724;53.546;9.974;2023-05-23T20:57:16;102006.75;;;12.51;66.84
31062;BME280;17724;53.546;9.974;2023-05-23T21:01:17;102001.09;;;12.57;67.10
31062;BME280;17724;53.546;9.974;2023-05-23T21:05:17;102008.41;;;12.52;68.61
31062;BME280;17724;53.546;9.974;2023-05-23T21:09:18;102004.47;;;12.48;68.51
31062;BME280;17724;53.546;9.974;2023-05-23T21:13:18;102006.81;;;12.68;68.19